createdAt,value
2022-12-08T00:01:46.782Z,4.90
2022-12-08T00:04:26.239Z,5.27
2022-12-08T00:07:16.595Z,5.13
2022-12-08T00:09:54.106Z,4.53
2022-12-08T00:12:39.065Z,4.57
2022-12-08T00:15:08.991Z,4.20
2022-12-08T00:17:40.704Z,4.60
2022-12-08T00:20:14.059Z,5.17
2022-12-08T00:22:49.434Z,4.47
2022-12-08T00:25:20.108Z,4.50
2022-12-08T00:27:51.963Z,4.13
2022-12-08T00:30:22.917Z,4.30
2022-12-08T00:33:05.321Z,4.60
2022-12-08T00:35:35.638Z,3.10
2022-12-08T00:38:09.496Z,4.43
2022-12-08T00:40:38.342Z,4.20
2022-12-08T00:43:11.572Z,4.10
2022-12-08T00:45:42.545Z,4.60
2022-12-08T00:48:11.359Z,4.60
2022-12-08T00:50:42.267Z,5.07
2022-12-08T00:53:16.065Z,5.60
2022-12-08T00:55:46.697Z,5.80
2022-12-08T00:58:21.978Z,4.47
2022-12-08T01:00:51.756Z,4.90
2022-12-08T01:03:34.098Z,5.03
2022-12-08T01:06:15.755Z,4.73
2022-12-08T01:08:56.760Z,4.70
2022-12-08T01:11:25.903Z,4.87
2022-12-08T01:14:00.150Z,5.17
2022-12-08T01:16:38.640Z,5.17
2022-12-08T01:19:07.950Z,5.37
2022-12-08T01:21:39.009Z,4.73
2022-12-08T01:24:16.399Z,4.13
2022-12-08T01:26:47.208Z,4.73
2022-12-08T01:29:32.264Z,5.17
2022-12-08T01:32:09.259Z,4.63
2022-12-08T01:34:42.009Z,4.93
2022-12-08T01:37:16.480Z,4.43
2022-12-08T01:39:44.613Z,4.40
2022-12-08T01:42:25.113Z,4.60
2022-12-08T01:45:03.787Z,5.00
2022-12-08T01:47:49.458Z,4.07
2022-12-08T01:50:27.409Z,4.43
2022-12-08T01:53:01.179Z,5.23
2022-12-08T01:55:35.210Z,4.70
2022-12-08T01:58:16.763Z,4.83
2022-12-08T02:00:52.711Z,4.43
2022-12-08T02:03:31.439Z,5.07
2022-12-08T02:06:12.614Z,4.53
2022-12-08T02:08:47.825Z,5.57
2022-12-08T02:11:20.362Z,5.10
2022-12-08T02:13:51.426Z,4.30
2022-12-08T02:16:40.896Z,4.20
2022-12-08T02:19:31.654Z,4.90
2022-12-08T02:22:02.779Z,4.70
2022-12-08T02:24:41.370Z,3.67
2022-12-08T02:27:22.965Z,4.20
2022-12-08T02:30:16.636Z,5.20
2022-12-08T02:33:30.879Z,3.73
2022-12-08T02:36:13.375Z,3.80
2022-12-08T02:38:51.234Z,3.70
2022-12-08T02:41:28.951Z,4.10
2022-12-08T02:44:04.102Z,3.93
2022-12-08T02:46:45.237Z,4.43
2022-12-08T02:49:19.433Z,4.10
2022-12-08T02:51:50.026Z,4.50
2022-12-08T02:54:22.545Z,4.03
2022-12-08T02:57:11.951Z,3.70
2022-12-08T02:59:58.969Z,4.10
2022-12-08T03:02:45.724Z,4.10
2022-12-08T03:05:33.811Z,4.10
2022-12-08T03:08:08.065Z,4.93
2022-12-08T03:10:41.563Z,4.30
2022-12-08T03:13:16.855Z,3.90
2022-12-08T03:15:53.714Z,4.30
2022-12-08T03:18:36.772Z,4.13
2022-12-08T03:21:05.942Z,4.00
2022-12-08T03:23:41.205Z,4.73
2022-12-08T03:26:15.833Z,4.43
2022-12-08T03:28:53.017Z,4.87
2022-12-08T03:31:27.572Z,5.47
2022-12-08T03:33:58.111Z,5.00
2022-12-08T03:36:36.579Z,5.10
2022-12-08T03:39:12.589Z,4.67
2022-12-08T03:41:40.610Z,5.70
2022-12-08T03:44:08.837Z,5.73
2022-12-08T03:46:36.830Z,5.30
2022-12-08T03:49:05.025Z,5.60
2022-12-08T03:51:33.016Z,5.43
2022-12-08T03:54:01.067Z,5.70
2022-12-08T03:56:32.954Z,5.73
2022-12-08T03:59:01.101Z,5.80
2022-12-08T04:01:29.240Z,5.93
2022-12-08T04:03:57.337Z,5.20
2022-12-08T04:06:25.850Z,6.30
2022-12-08T04:08:53.954Z,5.77
2022-12-08T04:11:22.499Z,5.77
2022-12-08T04:13:51.917Z,6.10
2022-12-08T04:16:22.112Z,6.13
2022-12-08T04:18:50.299Z,6.33
2022-12-08T04:21:18.396Z,5.70
2022-12-08T04:23:47.128Z,6.23
2022-12-08T04:26:15.638Z,6.60
2022-12-08T04:28:43.686Z,4.97
2022-12-08T04:31:13.164Z,5.87
2022-12-08T04:33:41.339Z,6.10
2022-12-08T04:36:10.500Z,5.93
2022-12-08T04:38:38.490Z,4.70
2022-12-08T04:41:06.533Z,5.53
2022-12-08T04:43:34.545Z,6.20
2022-12-08T04:46:02.567Z,5.70
2022-12-08T04:48:31.978Z,5.87
2022-12-08T04:50:59.964Z,5.50
2022-12-08T04:53:27.947Z,5.87
2022-12-08T04:55:56.169Z,6.10
2022-12-08T04:58:24.138Z,5.70
2022-12-08T05:00:52.297Z,6.20
2022-12-08T05:03:26.720Z,6.20
2022-12-08T05:05:57.794Z,6.10
2022-12-08T05:08:27.242Z,6.20
2022-12-08T05:11:06.829Z,6.20
2022-12-08T05:13:36.005Z,6.27
2022-12-08T05:16:09.400Z,6.43
2022-12-08T05:18:46.734Z,6.73
2022-12-08T05:21:29.292Z,6.77
2022-12-08T05:24:03.899Z,6.40
2022-12-08T05:26:35.099Z,6.13
2022-12-08T05:29:06.437Z,6.03
2022-12-08T05:31:44.389Z,6.47
2022-12-08T05:34:15.304Z,7.00
2022-12-08T05:36:59.449Z,6.70
2022-12-08T05:39:27.774Z,6.67
2022-12-08T05:41:56.961Z,6.10
2022-12-08T05:44:28.219Z,6.17
2022-12-08T05:46:57.592Z,7.17
2022-12-08T05:49:26.261Z,7.23
2022-12-08T05:52:03.722Z,5.93
2022-12-08T05:54:47.782Z,6.40
2022-12-08T05:57:25.607Z,6.90
2022-12-08T06:00:02.296Z,6.67
2022-12-08T06:02:43.811Z,5.60
2022-12-08T06:05:12.677Z,6.80
2022-12-08T06:07:42.849Z,6.10
2022-12-08T06:10:15.100Z,6.30
2022-12-08T06:12:45.997Z,6.50
2022-12-08T06:15:21.887Z,7.83
2022-12-08T06:17:52.529Z,6.63
2022-12-08T06:20:23.365Z,7.30
2022-12-08T06:23:05.812Z,7.13
2022-12-08T06:25:37.724Z,6.80
2022-12-08T06:28:07.511Z,7.47
2022-12-08T06:30:39.044Z,6.60
2022-12-08T06:33:07.542Z,7.10
2022-12-08T06:35:36.556Z,7.33
2022-12-08T06:38:19.476Z,7.20
2022-12-08T06:40:57.944Z,7.83
2022-12-08T06:43:29.775Z,7.60
2022-12-08T06:46:11.257Z,7.40
2022-12-08T06:48:45.080Z,7.10
2022-12-08T06:51:15.941Z,7.93
2022-12-08T06:53:48.335Z,7.63
2022-12-08T06:56:28.569Z,8.90
2022-12-08T06:58:56.856Z,7.60
2022-12-08T07:01:39.524Z,7.30
2022-12-08T07:04:14.935Z,8.60
2022-12-08T07:06:52.633Z,9.20
2022-12-08T07:09:25.139Z,8.80
2022-12-08T07:11:54.088Z,10.53
2022-12-08T07:14:25.762Z,10.20
2022-12-08T07:16:56.533Z,13.67
2022-12-08T07:19:30.565Z,12.17
2022-12-08T07:21:59.000Z,12.40
2022-12-08T07:24:37.231Z,11.50
2022-12-08T07:27:19.443Z,12.73
2022-12-08T07:29:50.978Z,11.37
2022-12-08T07:32:27.661Z,12.07
2022-12-08T07:34:56.176Z,12.03
2022-12-08T07:37:27.081Z,10.40
2022-12-08T07:39:59.252Z,11.30
2022-12-08T07:42:35.673Z,9.80
2022-12-08T07:45:05.493Z,11.17
2022-12-08T07:47:42.493Z,10.20
2022-12-08T07:50:13.161Z,9.03
2022-12-08T07:52:45.025Z,10.20
2022-12-08T07:55:22.315Z,9.37
2022-12-08T07:58:12.109Z,9.73
2022-12-08T08:00:55.957Z,9.90
2022-12-08T08:03:24.870Z,9.80
2022-12-08T08:05:59.861Z,9.43
2022-12-08T08:08:33.468Z,9.40
2022-12-08T08:11:15.795Z,8.13
2022-12-08T08:13:50.949Z,10.10
2022-12-08T08:16:26.009Z,9.57
2022-12-08T08:19:03.215Z,9.27
2022-12-08T08:21:45.486Z,10.27
2022-12-08T08:24:17.474Z,10.00
2022-12-08T08:26:50.483Z,10.63
2022-12-08T08:29:19.073Z,10.70
2022-12-08T08:31:58.380Z,10.83
2022-12-08T08:34:28.692Z,10.47
2022-12-08T08:37:00.511Z,10.73
2022-12-08T08:39:31.953Z,9.87
2022-12-08T08:42:12.776Z,10.60
2022-12-08T08:44:44.925Z,10.60
2022-12-08T08:47:17.543Z,9.40
2022-12-08T08:49:48.914Z,10.30
2022-12-08T08:52:19.783Z,10.50
2022-12-08T08:54:51.639Z,10.43
2022-12-08T08:57:28.339Z,9.53
2022-12-08T09:00:04.146Z,9.80
2022-12-08T09:02:36.074Z,10.23
2022-12-08T09:05:04.885Z,8.53
2022-12-08T09:07:34.055Z,9.40
2022-12-08T09:10:04.203Z,9.50
2022-12-08T09:12:45.871Z,9.50
2022-12-08T09:15:16.389Z,8.87
2022-12-08T09:17:59.345Z,9.40
2022-12-08T09:20:31.148Z,8.50
2022-12-08T09:23:35.375Z,8.87
2022-12-08T09:26:13.939Z,9.90
2022-12-08T09:28:46.456Z,8.67
2022-12-08T09:31:25.966Z,10.23
2022-12-08T09:33:58.816Z,9.80
2022-12-08T09:36:34.122Z,8.60
2022-12-08T09:39:11.232Z,8.67
2022-12-08T09:41:53.096Z,8.23
2022-12-08T09:45:06.515Z,8.47
2022-12-08T09:48:08.929Z,8.10
2022-12-08T09:50:45.778Z,8.47
2022-12-08T09:53:22.718Z,11.40
2022-12-08T09:55:56.906Z,9.10
2022-12-08T09:58:35.782Z,7.00
2022-12-08T10:01:06.469Z,6.70
2022-12-08T10:03:43.688Z,8.40
2022-12-08T10:06:26.899Z,7.93
2022-12-08T10:09:12.331Z,7.70
2022-12-08T10:11:51.008Z,8.30
2022-12-08T10:14:28.051Z,7.20
2022-12-08T10:17:09.423Z,7.97
2022-12-08T10:19:39.741Z,8.27
2022-12-08T10:22:22.879Z,8.30
2022-12-08T10:25:00.353Z,8.37
2022-12-08T10:27:36.799Z,8.30
2022-12-08T10:30:20.004Z,9.43
2022-12-08T10:32:52.328Z,9.20
2022-12-08T10:35:28.526Z,10.23
2022-12-08T10:38:00.721Z,10.87
2022-12-08T10:40:36.878Z,10.53
2022-12-08T10:43:20.866Z,10.80
2022-12-08T10:45:54.786Z,10.60
2022-12-08T10:48:27.857Z,10.90
2022-12-08T10:50:58.028Z,10.43
2022-12-08T10:53:29.513Z,10.20
2022-12-08T10:56:08.543Z,10.23
2022-12-08T10:58:40.699Z,10.63
2022-12-08T11:01:13.450Z,10.10
2022-12-08T11:03:46.853Z,10.47
2022-12-08T11:06:17.707Z,10.60
2022-12-08T11:08:49.907Z,10.47
2022-12-08T11:11:18.359Z,10.87
2022-12-08T11:13:49.485Z,10.90
2022-12-08T11:16:18.575Z,10.93
2022-12-08T11:18:49.998Z,11.33
2022-12-08T11:21:20.204Z,10.90
2022-12-08T11:23:49.989Z,11.23
2022-12-08T11:26:22.386Z,11.00
2022-12-08T11:28:50.675Z,12.13
2022-12-08T11:31:29.067Z,12.10
2022-12-08T11:33:58.745Z,12.03
2022-12-08T11:36:28.481Z,12.13
2022-12-08T11:38:58.679Z,12.07
2022-12-08T11:41:28.827Z,12.37
2022-12-08T11:44:02.766Z,12.70
2022-12-08T11:46:34.493Z,13.07
2022-12-08T11:49:06.903Z,12.70
2022-12-08T11:51:38.025Z,11.80
2022-12-08T11:54:18.076Z,12.00
2022-12-08T11:56:48.389Z,13.90
2022-12-08T11:59:25.481Z,11.97
2022-12-08T12:01:53.754Z,12.30
2022-12-08T12:04:27.918Z,12.77
2022-12-08T12:07:14.354Z,11.83
2022-12-08T12:09:53.034Z,12.97
2022-12-08T12:12:36.407Z,12.70
2022-12-08T12:15:32.864Z,12.80
2022-12-08T12:18:03.156Z,12.40
2022-12-08T12:20:35.122Z,12.03
2022-12-08T12:23:06.517Z,11.50
2022-12-08T12:25:36.088Z,13.17
2022-12-08T12:28:14.208Z,13.30
2022-12-08T12:31:04.590Z,13.63
2022-12-08T12:33:35.970Z,13.43
2022-12-08T12:36:11.549Z,12.57
2022-12-08T12:39:09.970Z,13.87
2022-12-08T12:41:49.905Z,12.20
2022-12-08T12:44:44.686Z,12.60
2022-12-08T12:47:24.043Z,12.63
2022-12-08T12:50:12.805Z,13.03
2022-12-08T12:52:44.227Z,12.50
2022-12-08T12:55:55.839Z,12.27
2022-12-08T12:58:44.286Z,13.10
2022-12-08T13:01:55.751Z,12.97
2022-12-08T13:04:32.734Z,13.20
2022-12-08T13:07:15.317Z,14.50
2022-12-08T13:09:58.586Z,12.40
2022-12-08T13:12:28.286Z,14.70
2022-12-08T13:15:02.729Z,13.37
2022-12-08T13:17:41.823Z,13.63
2022-12-08T13:20:24.439Z,14.07
2022-12-08T13:23:30.113Z,14.10
2022-12-08T13:26:19.227Z,15.83
2022-12-08T13:29:19.910Z,14.13
2022-12-08T13:32:07.692Z,15.07
2022-12-08T13:34:50.042Z,14.10
2022-12-08T13:37:27.946Z,15.77
2022-12-08T13:40:10.069Z,15.83
2022-12-08T13:42:55.517Z,15.40
2022-12-08T13:46:04.365Z,14.93
2022-12-08T13:48:42.310Z,14.67
2022-12-08T13:57:12.225Z,13.83
2022-12-08T13:59:51.490Z,15.10
2022-12-08T14:02:34.761Z,15.70
2022-12-08T14:05:21.704Z,15.53
2022-12-08T14:07:57.286Z,14.90
2022-12-08T14:10:33.070Z,15.27
2022-12-08T14:13:08.902Z,15.30
2022-12-08T14:15:41.744Z,15.30
2022-12-08T14:18:36.210Z,14.77
2022-12-08T14:21:22.560Z,14.97
2022-12-08T14:23:59.207Z,15.30
2022-12-08T14:26:28.400Z,15.07
2022-12-08T14:29:00.192Z,15.27
2022-12-08T14:31:30.578Z,14.60
2022-12-08T14:34:00.500Z,16.07
2022-12-08T14:36:33.708Z,15.67
2022-12-08T14:39:08.057Z,15.50
2022-12-08T14:41:40.613Z,15.60
2022-12-08T14:44:25.556Z,15.93
2022-12-08T14:47:10.903Z,15.20
2022-12-08T14:49:41.925Z,16.20
2022-12-08T14:52:15.369Z,15.77
2022-12-08T14:54:56.142Z,15.77
2022-12-08T14:57:34.900Z,15.90
2022-12-08T15:00:18.405Z,15.03
2022-12-08T15:02:54.991Z,14.40
2022-12-08T15:05:31.303Z,16.30
2022-12-08T15:08:04.278Z,15.57
2022-12-08T15:10:41.649Z,15.70
2022-12-08T15:13:24.037Z,15.73
2022-12-08T15:15:55.849Z,16.43
2022-12-08T15:18:36.784Z,17.23
2022-12-08T15:21:11.115Z,15.97
2022-12-08T15:23:45.796Z,16.87
2022-12-08T15:26:23.120Z,16.33
2022-12-08T15:29:05.280Z,16.10
2022-12-08T15:31:44.151Z,15.80
2022-12-08T15:34:17.783Z,16.83
2022-12-08T15:36:52.195Z,16.83
2022-12-08T15:39:36.861Z,18.73
2022-12-08T15:42:10.298Z,16.40
2022-12-08T15:44:41.587Z,17.57
2022-12-08T15:47:17.870Z,17.40
2022-12-08T15:49:57.090Z,17.00
2022-12-08T15:52:35.929Z,17.10
2022-12-08T15:55:04.473Z,17.43
2022-12-08T15:58:30.762Z,18.07
2022-12-08T16:09:28.304Z,18.30
2022-12-08T16:12:15.297Z,18.00
2022-12-08T16:17:53.637Z,18.37
2022-12-08T16:20:32.749Z,19.13
2022-12-08T16:23:41.548Z,19.80
2022-12-08T16:26:35.526Z,19.67
2022-12-08T16:29:07.046Z,18.60
2022-12-08T16:31:38.064Z,18.40
2022-12-08T16:34:15.841Z,19.90
2022-12-08T16:36:47.877Z,18.27
2022-12-08T16:39:27.778Z,18.17
2022-12-08T16:42:14.662Z,17.53
2022-12-08T16:44:46.636Z,18.50
2022-12-08T16:47:28.861Z,18.87
2022-12-08T16:49:59.656Z,19.90
2022-12-08T16:52:44.420Z,18.67
2022-12-08T16:55:19.592Z,19.10
2022-12-08T16:57:50.754Z,17.83
2022-12-08T17:00:22.521Z,21.40
2022-12-08T17:02:52.268Z,18.20
2022-12-08T17:05:23.005Z,18.67
2022-12-08T17:08:02.796Z,18.57
2022-12-08T17:10:43.566Z,19.53
2022-12-08T17:13:29.435Z,19.80
2022-12-08T17:15:58.381Z,19.27
2022-12-08T17:18:27.805Z,18.20
2022-12-08T17:21:12.384Z,19.60
2022-12-08T17:23:51.298Z,21.80
2022-12-08T17:26:36.107Z,20.07
2022-12-08T17:29:16.888Z,21.90
2022-12-08T17:31:45.730Z,21.10
2022-12-08T17:34:18.226Z,20.47
2022-12-08T17:36:56.489Z,21.43
2022-12-08T17:39:28.848Z,20.17
2022-12-08T17:42:08.364Z,21.43
2022-12-08T17:44:58.301Z,22.80
2022-12-08T17:47:39.957Z,21.40
2022-12-08T17:50:27.988Z,22.93
2022-12-08T17:52:58.521Z,22.50
2022-12-08T17:55:33.161Z,22.20
2022-12-08T17:58:07.734Z,22.20
2022-12-08T18:00:36.847Z,21.10
2022-12-08T18:03:19.762Z,22.10
2022-12-08T18:06:05.573Z,20.60
2022-12-08T18:08:38.271Z,22.80
2022-12-08T18:11:12.632Z,21.00
2022-12-08T18:13:45.866Z,24.00
2022-12-08T18:16:27.747Z,23.53
2022-12-08T18:18:58.387Z,22.57
2022-12-08T18:21:28.716Z,24.57
2022-12-08T18:24:09.855Z,24.07
2022-12-08T18:26:44.964Z,23.90
2022-12-08T18:29:23.359Z,23.53
2022-12-08T18:32:03.791Z,25.03
2022-12-08T18:34:38.825Z,25.27
2022-12-08T18:37:14.042Z,24.00
2022-12-08T18:39:49.735Z,23.53
2022-12-08T18:42:40.704Z,23.40
2022-12-08T18:45:36.275Z,24.23
2022-12-08T18:48:20.840Z,23.73
2022-12-08T18:50:52.423Z,21.97
2022-12-08T18:53:31.208Z,24.13
2022-12-08T18:56:04.493Z,23.80
2022-12-08T18:58:41.763Z,23.83
2022-12-08T19:01:21.766Z,23.23
2022-12-08T19:04:19.993Z,24.83
2022-12-08T19:06:50.847Z,22.07
2022-12-08T19:09:30.557Z,24.10
2022-12-08T19:12:06.293Z,24.40
2022-12-08T19:14:45.872Z,22.90
2022-12-08T19:17:33.181Z,24.80
2022-12-08T19:20:11.980Z,22.83
2022-12-08T19:22:49.617Z,24.50
2022-12-08T19:25:25.967Z,21.93
2022-12-08T19:28:03.130Z,23.00
2022-12-08T19:30:39.686Z,22.50
2022-12-08T19:36:23.188Z,21.03
2022-12-08T19:39:21.209Z,21.10
2022-12-08T19:42:12.850Z,20.50
2022-12-08T19:45:00.849Z,20.37
2022-12-08T19:47:46.651Z,21.57
2022-12-08T19:50:40.813Z,20.70
2022-12-08T19:53:19.111Z,21.10
2022-12-08T19:55:58.808Z,20.40
2022-12-08T19:58:29.762Z,20.70
2022-12-08T20:01:05.538Z,21.07
2022-12-08T20:03:36.926Z,21.93
2022-12-08T20:06:20.802Z,21.20
2022-12-08T20:09:04.832Z,20.23
2022-12-08T20:11:54.633Z,20.40
2022-12-08T20:14:30.772Z,20.20
2022-12-08T20:17:04.210Z,23.00
2022-12-08T20:19:38.912Z,22.20
2022-12-08T20:22:30.158Z,21.60
2022-12-08T20:25:06.553Z,20.60
2022-12-08T20:27:51.117Z,22.80
2022-12-08T20:30:25.341Z,22.50
2022-12-08T20:33:08.578Z,20.27
2022-12-08T20:35:41.143Z,21.67
2022-12-08T20:38:21.593Z,19.93
2022-12-08T20:40:51.155Z,22.30
2022-12-08T20:43:20.836Z,20.37
2022-12-08T20:45:50.319Z,20.40
2022-12-08T20:48:19.686Z,20.50
2022-12-08T20:50:52.322Z,21.63
2022-12-08T20:53:23.118Z,20.37
2022-12-08T20:55:55.874Z,21.60
2022-12-08T20:58:25.065Z,20.90
2022-12-08T21:00:54.126Z,20.23
2022-12-08T21:03:23.620Z,18.10
2022-12-08T21:05:53.556Z,18.70
2022-12-08T21:08:26.432Z,18.87
2022-12-08T21:10:57.953Z,19.10
2022-12-08T21:13:26.218Z,19.20
2022-12-08T21:15:54.957Z,21.47
2022-12-08T21:18:24.431Z,19.47
2022-12-08T21:20:54.095Z,19.90
2022-12-08T21:23:23.577Z,20.83
2022-12-08T21:25:52.048Z,19.17
2022-12-08T21:28:20.309Z,19.80
2022-12-08T21:30:48.429Z,19.43
2022-12-08T21:33:17.857Z,19.30
2022-12-08T21:35:46.305Z,19.53
2022-12-08T21:38:14.622Z,18.93
2022-12-08T21:40:44.249Z,20.93
2022-12-08T21:43:13.707Z,18.07
2022-12-08T21:45:42.044Z,18.57
2022-12-08T21:48:11.881Z,18.73
2022-12-08T21:50:40.431Z,17.60
2022-12-08T21:53:08.754Z,18.33
2022-12-08T21:55:37.238Z,18.23
2022-12-08T21:58:07.247Z,17.57
2022-12-08T22:00:35.620Z,18.93
2022-12-08T22:03:04.168Z,17.50
2022-12-08T22:05:32.543Z,17.03
2022-12-08T22:08:00.792Z,19.40
2022-12-08T22:10:29.270Z,17.10
2022-12-08T22:12:57.523Z,17.00
2022-12-08T22:15:29.808Z,17.07
2022-12-08T22:17:58.147Z,17.60
2022-12-08T22:20:26.419Z,17.00
2022-12-08T22:22:54.677Z,19.50
2022-12-08T22:25:23.018Z,17.97
2022-12-08T22:27:51.285Z,18.17
2022-12-08T22:30:19.583Z,19.33
2022-12-08T22:32:49.196Z,19.53
2022-12-08T22:35:17.561Z,18.53
2022-12-08T22:37:49.221Z,19.50
2022-12-08T22:40:17.759Z,18.90
2022-12-08T22:42:46.211Z,19.47
2022-12-08T22:45:14.683Z,18.80
2022-12-08T22:47:42.971Z,19.77
2022-12-08T22:50:13.100Z,21.37
2022-12-08T22:52:41.476Z,20.60
2022-12-08T22:55:10.228Z,20.40
2022-12-08T22:57:38.768Z,18.80
2022-12-08T23:00:11.938Z,20.83
2022-12-08T23:02:40.447Z,20.77
2022-12-08T23:05:09.468Z,21.63
2022-12-08T23:07:40.296Z,20.57
2022-12-08T23:10:10.764Z,19.83
2022-12-08T23:12:39.265Z,20.63
2022-12-08T23:15:08.755Z,20.20
2022-12-08T23:17:37.172Z,21.40
2022-12-08T23:20:06.966Z,21.43
2022-12-08T23:22:35.280Z,19.30
2022-12-08T23:25:07.757Z,20.47
2022-12-08T23:27:39.608Z,20.13
2022-12-08T23:30:10.227Z,22.30
2022-12-08T23:32:42.281Z,21.93
2022-12-08T23:35:12.840Z,21.60
2022-12-08T23:37:42.412Z,21.77
2022-12-08T23:40:16.318Z,20.43
2022-12-08T23:42:47.474Z,20.20
2022-12-08T23:45:19.998Z,20.13
2022-12-08T23:47:48.502Z,22.10
2022-12-08T23:50:28.550Z,21.67
2022-12-08T23:53:01.161Z,22.60
2022-12-08T23:55:36.340Z,20.90
2022-12-08T23:58:07.480Z,21.57
